Time;durP1;ratioP1;P1;durP2;ratioP2;P2;SDS_P1;SDS_P2;PMS_P1;PMS_P2;Temp;Humidity;BMP_temperature;BMP_pressure;BME280_temperature;BME280_humidity;BME280_pressure;Samples;Min_cycle;Max_cycle;Signal;HPM_P1;HPM_P2
2022/09/18 00:00:55;;;;;;;8.95;1.40;;;14.40;99.90;;;;;;5070705;28;20246;-78
2022/09/18 00:03:20;;;;;;;3.23;1.60;;;14.50;99.90;;;;;;5071096;28;20600;-78
2022/09/18 00:05:46;;;;;;;4.33;2.23;;;14.50;99.90;;;;;;5071752;28;20164;-78
2022/09/18 00:08:12;;;;;;;4.83;2.70;;;14.50;99.90;;;;;;5077880;28;20186;-79
2022/09/18 00:10:44;;;;;;;6.57;3.10;;;14.50;99.90;;;;;;5075034;28;20184;-78
2022/09/18 00:13:10;;;;;;;5.73;2.70;;;14.50;99.90;;;;;;5074519;28;21134;-77
2022/09/18 00:15:36;;;;;;;7.93;3.57;;;14.50;99.90;;;;;;5074234;28;20614;-78
2022/09/18 00:18:03;;;;;;;4.35;2.22;;;14.50;99.90;;;;;;5074349;28;20164;-78
2022/09/18 00:20:31;;;;;;;3.77;2.10;;;14.50;99.90;;;;;;5074194;28;20164;-78
2022/09/18 00:22:57;;;;;;;6.57;2.50;;;14.50;99.90;;;;;;5056415;28;20562;-78
2022/09/18 00:25:23;;;;;;;5.00;3.30;;;14.50;99.90;;;;;;5074578;28;21177;-78
2022/09/18 00:27:49;;;;;;;5.63;2.70;;;14.50;99.90;;;;;;5056369;28;20703;-78
2022/09/18 00:30:15;;;;;;;6.47;2.93;;;14.50;99.90;;;;;;5056096;28;20598;-75
2022/09/18 00:32:40;;;;;;;5.50;2.87;;;14.50;99.90;;;;;;5056049;28;20172;-75
2022/09/18 00:35:07;;;;;;;4.17;1.57;;;14.50;99.90;;;;;;5056384;28;20563;-73
2022/09/18 00:37:32;;;;;;;5.32;2.00;;;14.50;99.90;;;;;;5076416;28;20196;-75
2022/09/18 00:39:58;;;;;;;4.30;2.10;;;14.50;99.90;;;;;;5059499;28;20171;-74
2022/09/18 00:42:24;;;;;;;6.70;2.60;;;14.50;99.90;;;;;;5073902;28;20203;-75
2022/09/18 00:44:50;;;;;;;6.13;3.30;;;14.50;99.90;;;;;;5056736;28;20176;-75
2022/09/18 00:47:21;;;;;;;5.00;2.43;;;14.50;99.90;;;;;;5076318;28;20613;-74
2022/09/18 00:49:57;;;;;;;4.33;2.00;;;14.50;99.90;;;;;;5055598;28;20218;-75
2022/09/18 00:52:26;;;;;;;5.77;1.73;;;14.50;99.90;;;;;;5073728;28;20663;-75
2022/09/18 00:54:59;;;;;;;3.63;1.83;;;14.40;99.90;;;;;;5055615;28;20943;-75
2022/09/18 00:57:31;;;;;;;3.60;1.17;;;14.40;99.90;;;;;;5070465;28;20653;-75
2022/09/18 00:59:59;;;;;;;5.00;1.23;;;14.40;99.90;;;;;;5046746;28;20590;-74
2022/09/18 01:02:25;;;;;;;2.72;1.00;;;14.40;99.90;;;;;;5047390;28;20207;-74
2022/09/18 01:04:50;;;;;;;5.30;1.00;;;14.40;99.90;;;;;;5070141;28;20607;-75
2022/09/18 01:07:35;;;;;;;1.80;0.80;;;14.40;99.90;;;;;;5048385;28;20196;-75
2022/09/18 01:10:52;;;;;;;2.33;0.90;;;14.40;99.90;;;;;;5052242;28;20212;-74
2022/09/18 01:13:33;;;;;;;2.35;0.95;;;14.40;99.90;;;;;;4998235;28;20630;-75
2022/09/18 01:16:24;;;;;;;4.35;1.00;;;14.40;99.90;;;;;;5037298;28;20301;-74
2022/09/18 01:19:15;;;;;;;3.40;1.00;;;14.40;99.90;;;;;;5065419;28;20582;-75
2022/09/18 01:22:13;;;;;;;5.43;1.33;;;14.40;99.90;;;;;;5061907;28;20175;-75
2022/09/18 01:24:44;;;;;;;2.05;0.90;;;14.40;99.90;;;;;;5031557;28;20591;-74
2022/09/18 01:27:20;;;;;;;4.50;1.05;;;14.40;99.90;;;;;;5046866;28;20561;-75
2022/09/18 01:29:52;;;;;;;3.47;1.10;;;14.40;99.90;;;;;;5054882;28;20187;-74
2022/09/18 01:32:32;;;;;;;2.63;0.70;;;14.40;99.90;;;;;;5054945;28;20554;-75
2022/09/18 01:35:25;;;;;;;1.67;0.80;;;14.40;99.90;;;;;;5055014;28;20578;-74
2022/09/18 01:38:05;;;;;;;2.30;0.80;;;14.40;99.90;;;;;;5054823;28;20212;-74
2022/09/18 01:40:40;;;;;;;3.97;0.80;;;14.40;99.90;;;;;;5054665;28;20653;-74
2022/09/18 01:43:10;;;;;;;3.70;0.82;;;14.40;99.90;;;;;;5054755;28;20558;-74
2022/09/18 01:45:42;;;;;;;4.30;0.70;;;14.40;99.90;;;;;;5021607;28;20647;-75
2022/09/18 01:48:16;;;;;;;3.67;1.00;;;14.40;99.90;;;;;;5054662;28;20627;-75
2022/09/18 01:50:48;;;;;;;1.95;0.80;;;14.40;99.90;;;;;;5072496;28;20570;-75
2022/09/18 01:53:20;;;;;;;8.82;1.23;;;14.40;99.90;;;;;;5072434;28;20572;-75
2022/09/18 01:55:55;;;;;;;2.77;0.70;;;14.40;99.90;;;;;;5054638;28;20200;-75
2022/09/18 01:58:23;;;;;;;3.70;1.03;;;14.40;99.90;;;;;;5054748;28;20554;-75
2022/09/18 02:00:53;;;;;;;2.57;0.70;;;14.40;99.90;;;;;;5057838;28;20959;-75
2022/09/18 02:03:28;;;;;;;6.22;1.15;;;14.40;99.90;;;;;;5054915;28;20558;-75
2022/09/18 02:06:05;;;;;;;3.60;0.70;;;14.40;99.90;;;;;;5054419;28;20196;-75
2022/09/18 02:08:51;;;;;;;2.13;0.90;;;14.40;99.90;;;;;;5038072;28;20408;-75
2022/09/18 02:11:20;;;;;;;3.07;0.90;;;14.40;99.90;;;;;;5054375;28;20578;-75
2022/09/18 02:14:28;;;;;;;2.65;1.08;;;14.40;99.90;;;;;;5054422;28;20605;-75
2022/09/18 02:17:07;;;;;;;3.10;0.93;;;14.40;99.90;;;;;;5047316;28;20266;-75
2022/09/18 02:19:42;;;;;;;2.53;0.70;;;14.40;99.90;;;;;;5054001;28;20657;-74
2022/09/18 02:22:12;;;;;;;3.30;0.80;;;14.40;99.90;;;;;;5071803;28;20569;-75
2022/09/18 02:24:40;;;;;;;2.65;0.88;;;14.40;99.90;;;;;;5053989;28;20204;-74
2022/09/18 02:27:10;;;;;;;3.13;1.40;;;14.40;99.90;;;;;;5053894;28;20196;-75
2022/09/18 02:29:36;;;;;;;4.13;0.98;;;14.30;99.90;;;;;;5070623;28;20529;-74
2022/09/18 02:32:03;;;;;;;2.90;0.80;;;14.30;99.90;;;;;;5053666;28;20164;-74
2022/09/18 02:34:30;;;;;;;2.88;0.80;;;14.30;99.90;;;;;;5071726;28;20177;-75
2022/09/18 02:37:19;;;;;;;2.17;0.85;;;14.30;99.90;;;;;;5058410;28;20214;-74
2022/09/18 02:40:16;;;;;;;1.52;0.80;;;14.30;99.90;;;;;;5053378;28;20168;-74
2022/09/18 02:42:54;;;;;;;3.90;1.50;;;14.30;99.90;;;;;;5053656;28;20196;-75
2022/09/18 02:45:31;;;;;;;2.67;1.10;;;14.30;99.90;;;;;;5053709;28;20167;-75
2022/09/18 02:48:19;;;;;;;3.17;0.90;;;14.30;99.90;;;;;;5053618;28;20180;-74
2022/09/18 02:50:52;;;;;;;2.17;0.80;;;14.30;99.90;;;;;;5053527;28;20200;-74
2022/09/18 02:53:39;;;;;;;2.22;1.20;;;14.30;99.90;;;;;;5053636;28;20195;-75
2022/09/18 02:56:12;;;;;;;2.42;1.10;;;14.30;99.90;;;;;;5036323;28;20243;-74
2022/09/18 02:58:52;;;;;;;2.67;0.80;;;14.30;99.90;;;;;;5053806;28;20173;-74
2022/09/18 03:01:20;;;;;;;2.90;0.90;;;14.30;99.90;;;;;;5053362;28;20251;-74
2022/09/18 03:03:46;;;;;;;2.53;1.08;;;14.30;99.90;;;;;;5053623;28;20179;-75
2022/09/18 03:06:15;;;;;;;3.07;1.00;;;14.30;99.90;;;;;;5053353;28;20668;-75
2022/09/18 03:08:41;;;;;;;3.20;1.07;;;14.30;99.90;;;;;;5071425;28;20579;-75
2022/09/18 03:11:07;;;;;;;2.20;1.10;;;14.30;99.90;;;;;;5053198;28;20168;-74
2022/09/18 03:13:33;;;;;;;2.67;1.00;;;14.30;99.90;;;;;;5056459;28;20571;-74
2022/09/18 03:15:59;;;;;;;2.23;0.90;;;14.30;99.90;;;;;;5071291;28;20636;-74
2022/09/18 03:18:25;;;;;;;3.03;1.20;;;14.20;99.90;;;;;;5071472;28;20567;-74
2022/09/18 03:20:53;;;;;;;2.43;1.20;;;14.30;99.90;;;;;;5053064;28;20574;-74
2022/09/18 03:23:19;;;;;;;2.57;1.27;;;14.30;99.90;;;;;;5071145;28;21243;-75
2022/09/18 03:25:50;;;;;;;1.80;0.90;;;14.20;99.90;;;;;;5036449;28;20230;-74
2022/09/18 03:28:17;;;;;;;2.17;1.00;;;14.20;99.90;;;;;;5053296;28;20919;-75
2022/09/18 03:30:44;;;;;;;2.45;0.88;;;14.20;99.90;;;;;;5053024;28;20969;-75
2022/09/18 03:33:12;;;;;;;2.35;0.98;;;14.20;99.90;;;;;;5053198;28;20176;-75
2022/09/18 03:35:39;;;;;;;3.65;1.10;;;14.30;99.90;;;;;;5053150;28;20225;-75
2022/09/18 03:38:04;;;;;;;3.10;1.00;;;14.30;99.90;;;;;;5036481;28;20168;-75
2022/09/18 03:40:30;;;;;;;2.73;1.07;;;14.20;99.90;;;;;;5053545;28;20180;-75
2022/09/18 03:42:57;;;;;;;4.73;0.90;;;14.20;99.90;;;;;;5056957;28;20176;-75
2022/09/18 03:45:24;;;;;;;2.35;0.90;;;14.30;99.90;;;;;;5074975;28;21128;-74
2022/09/18 03:47:50;;;;;;;1.65;0.90;;;14.20;99.90;;;;;;5074852;28;20207;-75
2022/09/18 03:50:16;;;;;;;4.20;1.10;;;14.20;99.90;;;;;;5061304;28;20179;-75
2022/09/18 03:52:42;;;;;;;4.40;0.90;;;14.20;99.90;;;;;;5056829;28;20575;-74
2022/09/18 03:55:26;;;;;;;2.03;0.80;;;14.20;99.90;;;;;;5056926;28;20570;-74
2022/09/18 03:58:07;;;;;;;4.03;0.80;;;14.20;99.90;;;;;;5042248;28;20168;-74
2022/09/18 04:01:08;;;;;;;1.75;0.70;;;14.20;99.90;;;;;;5056030;28;20172;-74
2022/09/18 04:03:54;;;;;;;1.85;0.75;;;14.20;99.90;;;;;;5074470;28;20195;-74
2022/09/18 04:06:55;;;;;;;4.05;0.98;;;14.20;99.90;;;;;;5074365;28;20660;-74
2022/09/18 04:09:39;;;;;;;2.50;0.88;;;14.20;99.90;;;;;;5059295;28;20267;-74
2022/09/18 04:12:05;;;;;;;6.10;0.93;;;14.20;99.90;;;;;;5074295;28;20172;-74
2022/09/18 04:14:31;;;;;;;3.00;0.80;;;14.20;99.90;;;;;;5056500;28;20592;-74
2022/09/18 04:16:59;;;;;;;1.23;0.60;;;14.20;99.90;;;;;;5039657;28;20215;-74
2022/09/18 04:19:24;;;;;;;2.88;0.98;;;14.10;99.90;;;;;;5074048;28;20164;-75
2022/09/18 04:21:50;;;;;;;2.80;0.77;;;14.20;99.90;;;;;;5056340;28;20203;-75
2022/09/18 04:24:16;;;;;;;3.57;0.80;;;14.10;99.90;;;;;;5039890;28;20241;-75
2022/09/18 04:26:43;;;;;;;2.17;0.80;;;14.10;99.90;;;;;;5062596;28;20188;-75
2022/09/18 04:29:09;;;;;;;2.78;0.90;;;14.00;99.90;;;;;;5064747;28;20204;-75
2022/09/18 04:31:36;;;;;;;5.63;1.15;;;14.00;99.90;;;;;;5056163;28;20644;-75
2022/09/18 04:34:06;;;;;;;2.15;1.02;;;14.00;99.90;;;;;;5039539;28;20555;-75
2022/09/18 04:36:33;;;;;;;2.25;0.80;;;14.00;99.90;;;;;;5056014;28;20211;-74
2022/09/18 04:38:58;;;;;;;3.50;1.10;;;13.90;99.90;;;;;;5073974;28;20594;-74
2022/09/18 04:41:24;;;;;;;2.73;1.10;;;13.90;99.90;;;;;;5055704;28;20748;-74
2022/09/18 04:43:50;;;;;;;2.23;1.10;;;13.90;99.90;;;;;;5073888;28;20173;-74
2022/09/18 04:46:18;;;;;;;2.67;1.05;;;13.90;99.90;;;;;;5022681;28;21181;-74
2022/09/18 04:48:46;;;;;;;1.93;1.00;;;13.90;99.90;;;;;;5055752;28;20176;-75
2022/09/18 04:51:14;;;;;;;3.30;1.40;;;13.90;99.90;;;;;;5039205;28;20712;-75
2022/09/18 04:53:49;;;;;;;3.50;1.38;;;13.90;99.90;;;;;;5083251;22;20577;-77
2022/09/18 04:56:15;;;;;;;2.35;1.05;;;13.90;99.90;;;;;;5043940;28;20204;-77
2022/09/18 04:58:46;;;;;;;2.72;1.30;;;13.90;99.90;;;;;;5052509;28;20566;-77
2022/09/18 05:01:12;;;;;;;2.13;1.10;;;13.90;99.90;;;;;;5052056;28;20244;-77
2022/09/18 05:03:38;;;;;;;3.60;1.20;;;13.90;99.90;;;;;;5035738;28;20260;-77
2022/09/18 05:06:05;;;;;;;2.88;1.25;;;13.90;99.90;;;;;;5052104;28;20946;-77
2022/09/18 05:08:33;;;;;;;3.30;1.17;;;13.90;99.90;;;;;;5019140;28;20177;-77
2022/09/18 05:11:00;;;;;;;3.13;1.33;;;13.90;99.90;;;;;;5052197;28;20606;-77
2022/09/18 05:13:27;;;;;;;4.00;1.50;;;14.00;99.90;;;;;;5057378;28;20197;-76
2022/09/18 05:16:01;;;;;;;2.37;1.00;;;14.00;99.90;;;;;;5037498;28;20238;-77
2022/09/18 05:18:29;;;;;;;5.90;1.57;;;14.00;99.90;;;;;;5052094;28;20572;-77
2022/09/18 05:21:01;;;;;;;2.07;1.33;;;14.00;99.90;;;;;;5051807;28;20579;-77
2022/09/18 05:23:27;;;;;;;2.88;1.33;;;14.00;99.90;;;;;;5051837;28;20612;-77
2022/09/18 05:25:53;;;;;;;2.90;1.17;;;14.00;99.90;;;;;;5035504;28;20169;-77
2022/09/18 05:28:19;;;;;;;3.17;0.90;;;14.10;99.90;;;;;;5035438;28;20596;-77
2022/09/18 05:30:48;;;;;;;1.80;1.10;;;14.10;99.90;;;;;;5034953;28;20256;-77
2022/09/18 05:33:15;;;;;;;4.83;1.00;;;14.10;99.90;;;;;;5035260;28;20189;-76
2022/09/18 05:35:41;;;;;;;2.90;1.00;;;14.10;99.90;;;;;;5051708;28;20579;-77
2022/09/18 05:38:09;;;;;;;3.97;1.23;;;14.10;99.90;;;;;;5035051;28;20579;-77
2022/09/18 05:40:38;;;;;;;3.63;1.10;;;14.20;99.90;;;;;;5051511;28;20917;-77
2022/09/18 05:43:06;;;;;;;2.43;0.87;;;14.20;99.90;;;;;;5034746;28;20607;-76
2022/09/18 05:45:33;;;;;;;2.60;0.70;;;14.20;99.90;;;;;;5051705;28;20170;-76
2022/09/18 05:48:02;;;;;;;2.30;0.80;;;14.20;99.90;;;;;;5051721;28;20571;-77
2022/09/18 05:50:32;;;;;;;2.72;1.00;;;14.20;99.90;;;;;;5054480;28;20601;-77
2022/09/18 05:53:05;;;;;;;3.25;0.70;;;14.20;99.90;;;;;;5051649;28;20849;-77
2022/09/18 05:55:40;;;;;;;1.50;0.80;;;14.20;99.90;;;;;;5051582;28;20634;-77
2022/09/18 05:58:10;;;;;;;2.30;0.83;;;14.20;99.90;;;;;;5051233;28;20645;-77
2022/09/18 06:00:36;;;;;;;2.80;0.73;;;14.20;99.90;;;;;;5045136;28;20631;-77
2022/09/18 06:03:11;;;;;;;4.33;1.17;;;14.30;99.90;;;;;;5029864;28;20623;-77
2022/09/18 06:05:37;;;;;;;3.40;1.00;;;14.30;99.90;;;;;;5031135;28;20584;-77
2022/09/18 06:08:05;;;;;;;2.27;0.80;;;14.30;99.90;;;;;;5031354;28;20560;-77
2022/09/18 06:10:32;;;;;;;3.43;1.10;;;14.30;99.90;;;;;;5032091;28;20569;-77
2022/09/18 06:13:03;;;;;;;5.07;1.00;;;14.30;99.90;;;;;;5014473;28;20587;-77
2022/09/18 06:15:29;;;;;;;3.37;0.80;;;14.40;99.90;;;;;;5031406;28;21139;-77
2022/09/18 06:17:55;;;;;;;3.90;1.40;;;14.40;99.90;;;;;;5032792;28;20560;-76
2022/09/18 06:20:21;;;;;;;4.00;1.33;;;14.40;99.90;;;;;;5014646;28;20596;-76
2022/09/18 06:22:47;;;;;;;3.20;0.73;;;14.40;99.90;;;;;;5014673;28;20165;-76
2022/09/18 06:25:20;;;;;;;2.43;0.80;;;14.40;99.90;;;;;;4999082;28;20590;-77
2022/09/18 06:27:49;;;;;;;2.33;0.77;;;14.40;99.90;;;;;;5035793;28;20626;-77
2022/09/18 06:30:15;;;;;;;4.07;0.80;;;14.50;99.90;;;;;;5033544;28;20584;-77
2022/09/18 06:32:40;;;;;;;3.20;0.80;;;14.50;99.90;;;;;;4998634;28;21059;-77
2022/09/18 06:35:08;;;;;;;2.53;0.80;;;14.50;99.90;;;;;;5015664;28;20178;-76
2022/09/18 06:37:34;;;;;;;13.97;2.07;;;14.50;99.90;;;;;;5015195;28;20719;-77
2022/09/18 06:40:04;;;;;;;1.83;0.90;;;14.60;99.90;;;;;;5015266;28;20973;-77
2022/09/18 06:42:54;;;;;;;3.33;1.07;;;14.60;99.90;;;;;;5023510;28;20584;-77
2022/09/18 06:45:40;;;;;;;3.30;0.90;;;14.70;99.90;;;;;;5020512;28;20696;-77
2022/09/18 06:48:06;;;;;;;6.23;1.30;;;14.70;99.90;;;;;;5047879;28;20663;-76
2022/09/18 06:50:34;;;;;;;3.33;1.27;;;14.80;99.90;;;;;;5014363;28;20923;-77
2022/09/18 06:53:04;;;;;;;2.57;1.00;;;14.80;99.90;;;;;;5030966;28;20670;-77
2022/09/18 06:55:35;;;;;;;2.27;0.80;;;14.90;99.90;;;;;;5030786;28;20627;-77
2022/09/18 06:58:03;;;;;;;5.63;1.40;;;14.90;99.90;;;;;;5030926;28;20587;-77
2022/09/18 07:00:29;;;;;;;5.67;1.13;;;15.00;99.90;;;;;;5014306;28;20584;-77
2022/09/18 07:02:57;;;;;;;3.10;0.93;;;15.00;99.90;;;;;;5031244;28;21049;-77
2022/09/18 07:05:45;;;;;;;3.93;1.17;;;15.00;99.90;;;;;;5035942;28;20630;-77
2022/09/18 07:08:21;;;;;;;3.43;1.00;;;15.00;99.90;;;;;;4999603;28;20619;-79
2022/09/18 07:10:51;;;;;;;2.17;0.70;;;15.10;99.90;;;;;;5047438;28;20584;-80
2022/09/18 07:13:17;;;;;;;3.43;0.90;;;15.20;99.90;;;;;;5030820;28;20604;-80
2022/09/18 07:15:47;;;;;;;3.47;0.93;;;15.30;99.90;;;;;;5048494;28;20243;-80
2022/09/18 07:18:14;;;;;;;1.90;0.90;;;15.40;99.90;;;;;;5034972;28;20671;-81
2022/09/18 07:20:40;;;;;;;4.13;1.00;;;15.50;99.90;;;;;;5023332;28;21284;-79
2022/09/18 07:23:05;;;;;;;2.27;0.90;;;15.60;99.90;;;;;;5027230;28;20208;-80
2022/09/18 07:25:46;;;;;;;5.23;0.97;;;15.70;99.90;;;;;;5032339;28;20173;-79
2022/09/18 07:28:13;;;;;;;1.97;0.80;;;15.80;99.90;;;;;;5038931;28;20587;-80
2022/09/18 07:30:51;;;;;;;3.97;1.00;;;15.90;99.90;;;;;;5037801;28;20582;-80
2022/09/18 07:33:20;;;;;;;4.90;1.00;;;15.90;99.90;;;;;;5054674;28;20604;-79
2022/09/18 07:35:47;;;;;;;3.67;1.00;;;15.90;99.90;;;;;;5055295;28;20627;-79
2022/09/18 07:38:15;;;;;;;2.07;0.80;;;15.90;99.90;;;;;;5036732;28;20645;-79
2022/09/18 07:40:50;;;;;;;2.97;0.80;;;15.90;99.90;;;;;;5006924;28;20607;-78
2022/09/18 07:43:29;;;;;;;2.73;0.87;;;15.80;99.90;;;;;;5026008;28;20648;-79
2022/09/18 07:45:55;;;;;;;2.83;1.00;;;15.80;99.90;;;;;;5029709;28;20615;-79
2022/09/18 07:48:22;;;;;;;2.27;0.70;;;15.90;99.90;;;;;;5038071;28;20567;-79
2022/09/18 07:50:50;;;;;;;4.03;0.83;;;15.90;99.90;;;;;;5053961;28;20579;-79
2022/09/18 07:53:17;;;;;;;3.13;1.10;;;15.90;99.90;;;;;;5053191;28;20625;-79
2022/09/18 07:55:46;;;;;;;3.30;0.90;;;16.00;99.90;;;;;;5001536;28;20610;-80
2022/09/18 07:58:18;;;;;;;2.73;0.73;;;16.10;99.90;;;;;;5018203;28;20679;-81
2022/09/18 08:01:03;;;;;;;2.77;0.80;;;16.20;99.90;;;;;;5019746;28;20572;-80
2022/09/18 08:03:41;;;;;;;2.57;1.33;;;16.50;99.90;;;;;;5034225;28;20610;-81
2022/09/18 08:06:10;;;;;;;2.33;0.80;;;16.80;99.90;;;;;;5017807;28;20611;-81
2022/09/18 08:08:40;;;;;;;2.40;0.90;;;17.10;99.90;;;;;;5035380;28;20580;-81
2022/09/18 08:11:22;;;;;;;3.10;1.00;;;17.40;99.90;;;;;;5033755;28;20576;-81
2022/09/18 08:14:05;;;;;;;3.57;1.00;;;17.70;99.90;;;;;;5030042;28;20966;-82
2022/09/18 08:16:52;;;;;;;2.23;1.00;;;17.80;99.90;;;;;;5033565;28;20632;-81
2022/09/18 08:19:35;;;;;;;3.20;0.87;;;17.90;99.90;;;;;;5022374;28;20619;-81
2022/09/18 08:22:11;;;;;;;3.17;1.03;;;17.90;99.90;;;;;;5019447;28;20626;-81
2022/09/18 08:24:43;;;;;;;1.40;0.70;;;18.00;99.90;;;;;;5002623;28;21016;-82
2022/09/18 08:27:09;;;;;;;2.00;0.70;;;18.00;99.90;;;;;;5031893;28;20599;-81
2022/09/18 08:29:34;;;;;;;4.20;0.70;;;18.10;99.90;;;;;;5031998;28;20609;-82
2022/09/18 08:32:06;;;;;;;2.93;0.70;;;18.30;99.90;;;;;;5036727;28;20240;-83
2022/09/18 08:34:32;;;;;;;1.83;0.60;;;18.40;99.90;;;;;;5039862;28;20634;-81
2022/09/18 08:36:58;;;;;;;1.50;0.50;;;18.50;99.90;;;;;;5037828;28;20702;-83
2022/09/18 08:39:44;;;;;;;1.90;0.60;;;18.60;99.90;;;;;;5034858;28;20603;-82
2022/09/18 08:42:18;;;;;;;1.57;0.60;;;18.70;99.90;;;;;;5003739;28;20618;-81
2022/09/18 08:44:48;;;;;;;1.60;0.60;;;18.80;99.90;;;;;;5034751;28;20619;-83
2022/09/18 08:47:32;;;;;;;3.13;0.60;;;18.80;99.90;;;;;;5034850;28;20572;-82
2022/09/18 08:50:17;;;;;;;2.17;0.60;;;18.80;99.90;;;;;;5016924;28;20952;-81
2022/09/18 08:52:49;;;;;;;2.93;0.70;;;18.80;99.90;;;;;;5016965;28;20634;-81
2022/09/18 08:55:33;;;;;;;1.87;0.63;;;18.80;99.90;;;;;;5016812;28;20639;-80
2022/09/18 08:58:23;;;;;;;2.47;0.97;;;18.70;99.90;;;;;;5031906;28;20583;-79
2022/09/18 09:00:54;;;;;;;5.80;1.17;;;18.50;99.90;;;;;;5032746;28;20686;-79
2022/09/18 09:03:40;;;;;;;5.70;1.20;;;18.40;99.90;;;;;;5016443;28;20600;-79
2022/09/18 09:06:18;;;;;;;1.90;0.80;;;18.20;99.90;;;;;;5016542;28;20571;-79
2022/09/18 09:09:15;;;;;;;2.03;0.90;;;18.00;99.90;;;;;;5030064;28;20616;-78
2022/09/18 09:12:21;;;;;;;2.10;0.87;;;18.00;99.90;;;;;;5013340;28;21305;-78
2022/09/18 09:15:12;;;;;;;3.13;1.03;;;18.00;99.90;;;;;;5014047;28;20609;-78
2022/09/18 09:18:03;;;;;;;6.00;4.37;;;18.00;99.90;;;;;;5029242;28;20653;-78
2022/09/18 09:20:52;;;;;;;10.70;5.83;;;17.90;99.90;;;;;;5013053;28;20600;-78
2022/09/18 09:24:02;;;;;;;4.00;2.20;;;17.90;99.90;;;;;;5001492;28;20667;-77
2022/09/18 09:26:48;;;;;;;3.20;1.10;;;17.80;99.90;;;;;;5032320;28;20647;-80
2022/09/18 09:29:38;;;;;;;3.83;1.17;;;17.70;99.90;;;;;;5023567;28;20698;-82
2022/09/18 09:32:29;;;;;;;3.07;1.17;;;17.60;99.90;;;;;;5034863;28;20576;-80
2022/09/18 09:35:36;;;;;;;2.90;1.00;;;17.40;99.90;;;;;;5033293;28;20598;-80
2022/09/18 09:38:43;;;;;;;2.47;1.10;;;17.30;99.90;;;;;;5015313;28;20599;-80
2022/09/18 09:41:40;;;;;;;2.63;0.83;;;17.10;99.90;;;;;;5014904;28;20576;-79
2022/09/18 09:44:18;;;;;;;2.00;0.83;;;16.90;99.90;;;;;;5015095;28;21244;-80
2022/09/18 09:47:00;;;;;;;2.00;1.10;;;16.80;99.90;;;;;;5025044;28;20635;-79
2022/09/18 09:49:32;;;;;;;1.50;0.80;;;16.70;99.90;;;;;;5019759;28;20573;-78
2022/09/18 09:52:22;;;;;;;2.10;0.83;;;16.70;99.90;;;;;;5027557;28;20574;-79
2022/09/18 09:54:56;;;;;;;2.73;0.80;;;16.70;99.90;;;;;;5026586;28;21334;-78
2022/09/18 09:57:34;;;;;;;1.63;0.87;;;16.80;99.90;;;;;;5027921;28;20625;-79
2022/09/18 10:00:09;;;;;;;2.30;0.80;;;16.90;99.90;;;;;;5012058;28;20616;-78
2022/09/18 10:03:11;;;;;;;2.53;0.90;;;17.10;99.90;;;;;;5012999;28;20581;-78
2022/09/18 10:06:22;;;;;;;3.77;1.03;;;17.30;99.90;;;;;;5028536;28;20676;-78
2022/09/18 10:09:14;;;;;;;3.23;1.00;;;17.60;99.90;;;;;;5013732;28;21155;-78
2022/09/18 10:11:48;;;;;;;2.30;1.30;;;17.90;99.90;;;;;;5028162;28;20955;-78
2022/09/18 10:14:19;;;;;;;3.63;2.20;;;18.00;99.90;;;;;;5013102;28;20597;-78
2022/09/18 10:16:49;;;;;;;5.13;1.80;;;18.00;99.90;;;;;;5028361;28;20616;-78
2022/09/18 10:19:21;;;;;;;6.97;3.80;;;18.00;99.90;;;;;;5028043;28;20653;-77
2022/09/18 10:21:51;;;;;;;6.17;3.00;;;17.90;99.90;;;;;;5028364;28;20743;-77
2022/09/18 10:24:39;;;;;;;6.70;4.33;;;17.90;99.90;;;;;;5028084;28;20601;-77
2022/09/18 10:27:13;;;;;;;6.83;4.07;;;17.80;99.90;;;;;;5028127;28;20581;-77
2022/09/18 10:29:41;;;;;;;3.00;1.80;;;17.70;99.90;;;;;;5027673;28;20580;-77
2022/09/18 10:32:12;;;;;;;4.03;1.40;;;17.60;99.90;;;;;;5027640;28;20911;-77
2022/09/18 10:34:49;;;;;;;3.00;1.00;;;17.60;99.90;;;;;;5027843;28;20601;-78
2022/09/18 10:37:38;;;;;;;2.47;0.90;;;17.50;99.90;;;;;;5027888;28;20624;-78
2022/09/18 10:40:32;;;;;;;2.83;0.90;;;17.40;99.90;;;;;;5027654;28;20624;-77
2022/09/18 10:42:59;;;;;;;2.17;0.90;;;17.40;99.90;;;;;;5027798;28;20573;-77
2022/09/18 10:45:40;;;;;;;3.87;0.90;;;17.30;99.90;;;;;;5032955;28;20557;-77
2022/09/18 10:48:35;;;;;;;2.03;0.90;;;17.30;99.90;;;;;;5008748;28;20600;-78
2022/09/18 10:51:03;;;;;;;2.40;1.00;;;17.30;99.90;;;;;;5026104;28;20647;-78
2022/09/18 10:53:38;;;;;;;2.30;1.17;;;17.30;99.90;;;;;;5027488;28;20609;-78
2022/09/18 10:56:24;;;;;;;2.97;1.37;;;17.30;99.90;;;;;;5050579;23;21207;-80
2022/09/18 10:58:53;;;;;;;3.30;1.00;;;17.40;99.90;;;;;;5062580;28;20579;-81
2022/09/18 11:01:23;;;;;;;2.60;1.30;;;17.40;99.90;;;;;;5060874;28;20589;-81
2022/09/18 11:03:59;;;;;;;2.30;0.90;;;17.40;99.90;;;;;;5059902;28;20579;-81
2022/09/18 11:06:30;;;;;;;2.30;1.10;;;17.50;99.90;;;;;;5050890;28;20603;-81
2022/09/18 11:09:07;;;;;;;2.17;1.13;;;17.40;99.90;;;;;;5051604;28;20572;-82
2022/09/18 11:11:36;;;;;;;2.00;0.90;;;17.40;99.90;;;;;;5050888;28;20897;-81
2022/09/18 11:14:24;;;;;;;3.73;1.53;;;17.40;99.90;;;;;;5051393;28;20562;-81
2022/09/18 11:17:25;;;;;;;2.97;0.80;;;17.40;99.90;;;;;;5051907;28;20635;-80
2022/09/18 11:19:55;;;;;;;2.10;0.90;;;17.40;99.90;;;;;;5060480;28;20576;-80
2022/09/18 11:22:43;;;;;;;5.03;1.20;;;17.40;99.90;;;;;;5059736;28;20583;-81
2022/09/18 11:25:28;;;;;;;1.50;0.70;;;17.40;99.90;;;;;;5041520;28;20674;-82
2022/09/18 11:27:59;;;;;;;2.43;0.80;;;17.40;99.90;;;;;;5056804;28;20599;-81
2022/09/18 11:30:34;;;;;;;1.60;0.70;;;17.40;99.90;;;;;;5060134;28;20568;-81
2022/09/18 11:33:14;;;;;;;2.90;1.10;;;17.40;99.90;;;;;;5052469;28;21013;-81
2022/09/18 11:35:45;;;;;;;3.00;0.70;;;17.50;99.90;;;;;;5052333;28;21149;-81
2022/09/18 11:38:18;;;;;;;1.40;0.80;;;17.50;99.90;;;;;;5052635;28;20563;-81
2022/09/18 11:40:50;;;;;;;2.10;0.83;;;17.50;99.90;;;;;;5051505;28;20568;-82
2022/09/18 11:43:27;;;;;;;3.67;1.27;;;17.50;99.90;;;;;;5050862;28;20571;-81
2022/09/18 11:46:15;;;;;;;3.07;0.87;;;17.60;99.90;;;;;;5050513;28;20571;-82
2022/09/18 11:48:48;;;;;;;1.83;1.37;;;17.60;99.90;;;;;;5050501;28;20599;-81
2022/09/18 11:51:25;;;;;;;2.87;1.10;;;17.60;99.90;;;;;;5050117;28;20567;-80
2022/09/18 11:54:03;;;;;;;2.40;0.93;;;17.60;99.90;;;;;;5050235;28;21030;-82
2022/09/18 11:56:40;;;;;;;2.33;0.90;;;17.50;99.90;;;;;;5050114;28;20995;-82
2022/09/18 11:59:24;;;;;;;2.30;1.30;;;17.50;99.90;;;;;;5033746;28;20662;-81
2022/09/18 12:01:56;;;;;;;1.87;0.80;;;17.50;99.90;;;;;;5053474;28;20563;-82
2022/09/18 12:05:01;;;;;;;2.13;1.00;;;17.40;99.90;;;;;;5055685;28;20651;-81
2022/09/18 12:07:34;;;;;;;3.77;1.33;;;17.40;99.90;;;;;;5026567;28;20607;-82
2022/09/18 12:10:06;;;;;;;4.73;2.67;;;17.40;99.90;;;;;;5056347;28;20710;-82
2022/09/18 12:13:01;;;;;;;5.13;3.50;;;17.30;99.90;;;;;;5054996;28;20666;-82
2022/09/18 12:15:41;;;;;;;4.50;3.30;;;17.30;99.90;;;;;;5054546;28;20666;-81
2022/09/18 12:18:29;;;;;;;4.53;2.00;;;17.40;99.90;;;;;;5054369;28;20610;-82
2022/09/18 12:21:10;;;;;;;3.13;1.50;;;17.40;99.90;;;;;;5038379;28;20575;-83
2022/09/18 12:23:38;;;;;;;3.43;1.73;;;17.50;99.90;;;;;;5054110;28;20563;-82
2022/09/18 12:26:11;;;;;;;2.50;1.90;;;17.70;99.90;;;;;;5037577;28;21205;-80
2022/09/18 12:29:01;;;;;;;3.47;2.07;;;17.90;99.90;;;;;;5054547;28;21188;-83
2022/09/18 12:31:55;;;;;;;4.00;2.50;;;18.00;99.90;;;;;;5055267;28;20958;-82
2022/09/18 12:34:45;;;;;;;4.53;1.70;;;18.10;99.90;;;;;;5054449;28;21161;-82
2022/09/18 12:37:47;;;;;;;3.00;1.20;;;18.30;99.90;;;;;;5052838;28;21279;-83
2022/09/18 12:40:36;;;;;;;2.30;1.20;;;18.30;99.90;;;;;;5054185;28;20670;-83
2022/09/18 12:43:24;;;;;;;3.53;1.53;;;18.40;99.90;;;;;;5053772;28;20572;-82
2022/09/18 12:46:11;;;;;;;4.03;2.00;;;18.50;99.90;;;;;;5059829;28;20667;-82
2022/09/18 12:48:46;;;;;;;3.03;1.77;;;18.50;99.90;;;;;;5054055;28;21114;-82
2022/09/18 12:51:35;;;;;;;7.73;3.53;;;18.50;99.90;;;;;;5053820;28;20925;-81
2022/09/18 12:54:12;;;;;;;5.40;3.50;;;18.50;99.90;;;;;;5054182;28;20574;-82
2022/09/18 12:57:02;;;;;;;6.07;2.70;;;18.50;99.90;;;;;;5055155;28;20653;-82
2022/09/18 12:59:47;;;;;;;3.37;1.93;;;18.40;99.90;;;;;;5055030;28;20677;-82
2022/09/18 13:02:32;;;;;;;6.40;2.73;;;18.30;99.90;;;;;;5060262;28;20639;-82
2022/09/18 13:05:14;;;;;;;4.77;3.67;;;18.10;99.90;;;;;;5055234;28;20612;-82
2022/09/18 13:07:56;;;;;;;4.90;3.00;;;17.90;99.90;;;;;;5054678;28;20690;-82
2022/09/18 13:10:42;;;;;;;7.50;5.17;;;17.70;99.90;;;;;;5053348;28;20607;-82
2022/09/18 13:13:48;;;;;;;7.07;4.20;;;17.40;99.90;;;;;;5055033;28;20583;-82
2022/09/18 13:16:24;;;;;;;7.20;3.73;;;17.20;99.90;;;;;;5057150;28;20774;-83
2022/09/18 13:19:09;;;;;;;9.60;4.30;;;17.00;99.90;;;;;;5066930;28;20574;-82
2022/09/18 13:21:40;;;;;;;2.93;1.37;;;16.90;99.90;;;;;;5060708;28;20570;-82
2022/09/18 13:24:28;;;;;;;2.67;1.20;;;16.70;99.90;;;;;;5062215;28;20567;-82
2022/09/18 13:26:55;;;;;;;6.47;2.07;;;16.60;99.90;;;;;;5057003;28;20710;-82
2022/09/18 13:29:45;;;;;;;3.07;1.50;;;16.50;99.90;;;;;;5053960;28;20647;-81